sensor_id;sensor_type;location;lat;lon;timestamp;temperature;humidity
18948;DHT22;9607;51.600;7.558;2023-06-22T00:01:13;20.20;99.90
18948;DHT22;9607;51.600;7.558;2023-06-22T00:03:40;20.20;99.90
18948;DHT22;9607;51.600;7.558;2023-06-22T00:06:07;20.20;99.90
18948;DHT22;9607;51.600;7.558;2023-06-22T00:08:33;20.20;99.90
18948;DHT22;9607;51.600;7.558;2023-06-22T00:11:01;20.20;99.90
18948;DHT22;9607;51.600;7.558;2023-06-22T00:13:28;20.10;99.90
18948;DHT22;9607;51.600;7.558;2023-06-22T00:15:55;20.20;99.90
18948;DHT22;9607;51.600;7.558;2023-06-22T00:18:22;20.10;99.90
18948;DHT22;9607;51.600;7.558;2023-06-22T00:20:54;20.10;99.90
18948;DHT22;9607;51.600;7.558;2023-06-22T00:23:23;20.00;99.90
18948;DHT22;9607;51.600;7.558;2023-06-22T00:25:50;20.00;99.90
18948;DHT22;9607;51.600;7.558;2023-06-22T00:28:19;20.00;99.90
18948;DHT22;9607;51.600;7.558;2023-06-22T00:30:45;20.00;99.90
18948;DHT22;9607;51.600;7.558;2023-06-22T00:33:13;19.90;99.90
18948;DHT22;9607;51.600;7.558;2023-06-22T00:35:41;19.90;99.90
18948;DHT22;9607;51.600;7.558;2023-06-22T00:38:08;19.80;99.90
18948;DHT22;9607;51.600;7.558;2023-06-22T00:40:35;19.80;99.90
18948;DHT22;9607;51.600;7.558;2023-06-22T00:43:02;19.80;99.90
18948;DHT22;9607;51.600;7.558;2023-06-22T00:45:31;19.70;99.90
18948;DHT22;9607;51.600;7.558;2023-06-22T00:47:58;19.70;99.90
18948;DHT22;9607;51.600;7.558;2023-06-22T00:50:26;19.70;99.90
18948;DHT22;9607;51.600;7.558;2023-06-22T00:52:55;19.70;99.90
18948;DHT22;9607;51.600;7.558;2023-06-22T00:55:24;19.70;99.90
18948;DHT22;9607;51.600;7.558;2023-06-22T00:57:51;19.70;99.90
18948;DHT22;9607;51.600;7.558;2023-06-22T01:00:21;19.60;99.90
18948;DHT22;9607;51.600;7.558;2023-06-22T01:02:51;19.60;99.90
18948;DHT22;9607;51.600;7.558;2023-06-22T01:05:19;19.60;99.90
18948;DHT22;9607;51.600;7.558;2023-06-22T01:08:00;19.60;99.90
18948;DHT22;9607;51.600;7.558;2023-06-22T01:10:36;19.60;99.90
18948;DHT22;9607;51.600;7.558;2023-06-22T01:13:10;19.60;99.90
18948;DHT22;9607;51.600;7.558;2023-06-22T01:15:45;19.60;99.90
18948;DHT22;9607;51.600;7.558;2023-06-22T01:18:18;19.60;99.90
18948;DHT22;9607;51.600;7.558;2023-06-22T01:20:46;19.60;99.90
18948;DHT22;9607;51.600;7.558;2023-06-22T01:23:23;19.50;99.90
18948;DHT22;9607;51.600;7.558;2023-06-22T01:25:59;19.50;99.90
18948;DHT22;9607;51.600;7.558;2023-06-22T01:28:45;19.50;99.90
18948;DHT22;9607;51.600;7.558;2023-06-22T01:31:15;19.40;99.90
18948;DHT22;9607;51.600;7.558;2023-06-22T01:33:45;19.40;99.90
18948;DHT22;9607;51.600;7.558;2023-06-22T01:36:13;19.40;99.90
18948;DHT22;9607;51.600;7.558;2023-06-22T01:38:42;19.40;99.90
18948;DHT22;9607;51.600;7.558;2023-06-22T01:41:10;19.40;99.90
18948;DHT22;9607;51.600;7.558;2023-06-22T01:43:38;19.40;99.90
18948;DHT22;9607;51.600;7.558;2023-06-22T01:46:05;19.30;99.90
18948;DHT22;9607;51.600;7.558;2023-06-22T01:48:32;19.30;99.90
18948;DHT22;9607;51.600;7.558;2023-06-22T01:50:59;19.30;99.90
18948;DHT22;9607;51.600;7.558;2023-06-22T01:53:26;19.40;99.90
18948;DHT22;9607;51.600;7.558;2023-06-22T01:55:53;19.40;99.90
18948;DHT22;9607;51.600;7.558;2023-06-22T01:58:21;19.30;99.90
18948;DHT22;9607;51.600;7.558;2023-06-22T02:00:56;19.30;99.90
18948;DHT22;9607;51.600;7.558;2023-06-22T02:03:30;19.30;99.90
18948;DHT22;9607;51.600;7.558;2023-06-22T02:06:03;19.30;99.90
18948;DHT22;9607;51.600;7.558;2023-06-22T02:08:33;19.30;99.90
18948;DHT22;9607;51.600;7.558;2023-06-22T02:11:02;19.30;99.90
18948;DHT22;9607;51.600;7.558;2023-06-22T02:13:30;19.30;99.90
18948;DHT22;9607;51.600;7.558;2023-06-22T02:15:59;19.30;99.90
18948;DHT22;9607;51.600;7.558;2023-06-22T02:18:26;19.30;99.90
18948;DHT22;9607;51.600;7.558;2023-06-22T02:20:53;19.30;99.90
18948;DHT22;9607;51.600;7.558;2023-06-22T02:23:20;19.30;99.90
18948;DHT22;9607;51.600;7.558;2023-06-22T02:25:47;19.30;99.90
18948;DHT22;9607;51.600;7.558;2023-06-22T02:28:14;19.20;99.90
18948;DHT22;9607;51.600;7.558;2023-06-22T02:30:40;19.20;99.90
18948;DHT22;9607;51.600;7.558;2023-06-22T02:33:09;19.20;99.90
18948;DHT22;9607;51.600;7.558;2023-06-22T02:35:35;19.20;99.90
18948;DHT22;9607;51.600;7.558;2023-06-22T02:38:03;19.20;99.90
18948;DHT22;9607;51.600;7.558;2023-06-22T02:40:31;19.10;99.90
18948;DHT22;9607;51.600;7.558;2023-06-22T02:42:58;19.10;99.90
18948;DHT22;9607;51.600;7.558;2023-06-22T02:45:27;19.10;99.90
18948;DHT22;9607;51.600;7.558;2023-06-22T02:47:54;19.10;99.90
18948;DHT22;9607;51.600;7.558;2023-06-22T02:50:23;19.00;99.90
18948;DHT22;9607;51.600;7.558;2023-06-22T02:52:50;19.00;99.90
18948;DHT22;9607;51.600;7.558;2023-06-22T02:55:17;19.00;99.90
18948;DHT22;9607;51.600;7.558;2023-06-22T02:57:44;18.90;99.90
18948;DHT22;9607;51.600;7.558;2023-06-22T03:00:13;18.90;99.90
18948;DHT22;9607;51.600;7.558;2023-06-22T03:02:43;18.90;99.90
18948;DHT22;9607;51.600;7.558;2023-06-22T03:05:10;18.80;99.90
18948;DHT22;9607;51.600;7.558;2023-06-22T03:07:40;18.80;99.90
18948;DHT22;9607;51.600;7.558;2023-06-22T03:10:08;18.80;99.90
18948;DHT22;9607;51.600;7.558;2023-06-22T03:12:35;18.70;99.90
18948;DHT22;9607;51.600;7.558;2023-06-22T03:15:03;18.70;99.90
18948;DHT22;9607;51.600;7.558;2023-06-22T03:17:30;18.70;99.90
18948;DHT22;9607;51.600;7.558;2023-06-22T03:19:57;18.60;99.90
18948;DHT22;9607;51.600;7.558;2023-06-22T03:22:23;18.60;99.90
18948;DHT22;9607;51.600;7.558;2023-06-22T03:24:51;18.60;99.90
18948;DHT22;9607;51.600;7.558;2023-06-22T03:27:18;18.60;99.90
18948;DHT22;9607;51.600;7.558;2023-06-22T03:29:45;18.60;99.90
18948;DHT22;9607;51.600;7.558;2023-06-22T03:32:12;18.60;99.90
18948;DHT22;9607;51.600;7.558;2023-06-22T03:34:38;18.60;99.90
18948;DHT22;9607;51.600;7.558;2023-06-22T03:37:05;18.60;99.90
18948;DHT22;9607;51.600;7.558;2023-06-22T03:39:32;18.60;99.90
18948;DHT22;9607;51.600;7.558;2023-06-22T03:42:00;18.60;99.90
18948;DHT22;9607;51.600;7.558;2023-06-22T03:44:27;18.60;99.90
18948;DHT22;9607;51.600;7.558;2023-06-22T03:46:53;18.50;99.90
18948;DHT22;9607;51.600;7.558;2023-06-22T03:49:20;18.60;99.90
18948;DHT22;9607;51.600;7.558;2023-06-22T03:51:47;18.50;99.90
18948;DHT22;9607;51.600;7.558;2023-06-22T03:54:14;18.50;99.90
18948;DHT22;9607;51.600;7.558;2023-06-22T03:56:40;18.50;99.90
18948;DHT22;9607;51.600;7.558;2023-06-22T03:59:09;18.50;99.90
18948;DHT22;9607;51.600;7.558;2023-06-22T04:01:35;18.50;99.90
18948;DHT22;9607;51.600;7.558;2023-06-22T04:04:02;18.50;99.90
18948;DHT22;9607;51.600;7.558;2023-06-22T04:06:29;18.50;99.90
18948;DHT22;9607;51.600;7.558;2023-06-22T04:08:56;18.50;99.90
18948;DHT22;9607;51.600;7.558;2023-06-22T04:11:23;18.60;99.90
18948;DHT22;9607;51.600;7.558;2023-06-22T04:13:49;18.60;99.90
18948;DHT22;9607;51.600;7.558;2023-06-22T04:16:18;18.60;99.90
18948;DHT22;9607;51.600;7.558;2023-06-22T04:18:45;18.60;99.90
18948;DHT22;9607;51.600;7.558;2023-06-22T04:21:12;18.70;99.90
18948;DHT22;9607;51.600;7.558;2023-06-22T04:23:39;18.80;99.90
18948;DHT22;9607;51.600;7.558;2023-06-22T04:26:06;18.80;99.90
18948;DHT22;9607;51.600;7.558;2023-06-22T04:28:33;18.90;99.90
18948;DHT22;9607;51.600;7.558;2023-06-22T04:31:01;18.90;99.90
18948;DHT22;9607;51.600;7.558;2023-06-22T04:33:29;19.00;99.90
18948;DHT22;9607;51.600;7.558;2023-06-22T04:36:04;19.20;99.90
18948;DHT22;9607;51.600;7.558;2023-06-22T04:38:30;19.30;99.90
18948;DHT22;9607;51.600;7.558;2023-06-22T04:40:58;19.50;99.90
18948;DHT22;9607;51.600;7.558;2023-06-22T04:43:26;19.60;99.90
18948;DHT22;9607;51.600;7.558;2023-06-22T04:45:55;19.80;99.90
18948;DHT22;9607;51.600;7.558;2023-06-22T04:48:22;19.90;99.90
18948;DHT22;9607;51.600;7.558;2023-06-22T04:50:50;20.00;99.90
18948;DHT22;9607;51.600;7.558;2023-06-22T04:53:17;20.10;99.90
18948;DHT22;9607;51.600;7.558;2023-06-22T04:55:43;20.20;99.90
18948;DHT22;9607;51.600;7.558;2023-06-22T04:58:12;20.40;99.90
18948;DHT22;9607;51.600;7.558;2023-06-22T05:00:38;20.40;99.90
18948;DHT22;9607;51.600;7.558;2023-06-22T05:03:05;20.50;99.90
18948;DHT22;9607;51.600;7.558;2023-06-22T05:05:36;20.50;99.90
18948;DHT22;9607;51.600;7.558;2023-06-22T05:08:04;20.60;99.90
18948;DHT22;9607;51.600;7.558;2023-06-22T05:10:32;20.70;99.90
18948;DHT22;9607;51.600;7.558;2023-06-22T05:12:59;20.80;99.90
18948;DHT22;9607;51.600;7.558;2023-06-22T05:15:25;20.80;99.90
18948;DHT22;9607;51.600;7.558;2023-06-22T05:17:56;20.80;99.90
18948;DHT22;9607;51.600;7.558;2023-06-22T05:20:23;20.90;99.90
18948;DHT22;9607;51.600;7.558;2023-06-22T05:22:50;20.90;99.90
18948;DHT22;9607;51.600;7.558;2023-06-22T05:25:19;21.00;99.90
18948;DHT22;9607;51.600;7.558;2023-06-22T05:27:45;21.00;99.90
18948;DHT22;9607;51.600;7.558;2023-06-22T05:30:12;21.00;99.90
18948;DHT22;9607;51.600;7.558;2023-06-22T05:32:39;21.00;99.90
18948;DHT22;9607;51.600;7.558;2023-06-22T05:35:06;21.10;99.90
18948;DHT22;9607;51.600;7.558;2023-06-22T05:37:33;21.10;99.90
18948;DHT22;9607;51.600;7.558;2023-06-22T05:40:00;21.10;99.90
18948;DHT22;9607;51.600;7.558;2023-06-22T05:42:30;21.10;99.90
18948;DHT22;9607;51.600;7.558;2023-06-22T05:44:57;21.00;99.90
18948;DHT22;9607;51.600;7.558;2023-06-22T05:47:24;21.10;99.90
18948;DHT22;9607;51.600;7.558;2023-06-22T05:49:51;21.10;99.90
18948;DHT22;9607;51.600;7.558;2023-06-22T05:52:17;21.20;99.90
18948;DHT22;9607;51.600;7.558;2023-06-22T05:54:44;21.20;99.90
18948;DHT22;9607;51.600;7.558;2023-06-22T05:57:11;21.30;99.90
18948;DHT22;9607;51.600;7.558;2023-06-22T05:59:39;21.40;99.90
18948;DHT22;9607;51.600;7.558;2023-06-22T06:02:06;21.40;99.90
18948;DHT22;9607;51.600;7.558;2023-06-22T06:04:32;21.50;99.90
18948;DHT22;9607;51.600;7.558;2023-06-22T06:07:00;21.60;99.90
18948;DHT22;9607;51.600;7.558;2023-06-22T06:09:26;21.70;99.90
18948;DHT22;9607;51.600;7.558;2023-06-22T06:11:53;21.70;99.90
18948;DHT22;9607;51.600;7.558;2023-06-22T06:14:20;21.90;99.90
18948;DHT22;9607;51.600;7.558;2023-06-22T06:16:48;21.90;99.90
18948;DHT22;9607;51.600;7.558;2023-06-22T06:19:15;22.00;99.90
18948;DHT22;9607;51.600;7.558;2023-06-22T06:21:42;22.20;99.90
18948;DHT22;9607;51.600;7.558;2023-06-22T06:24:09;22.20;99.90
18948;DHT22;9607;51.600;7.558;2023-06-22T06:26:35;22.20;99.90
18948;DHT22;9607;51.600;7.558;2023-06-22T06:29:02;22.30;99.90
18948;DHT22;9607;51.600;7.558;2023-06-22T06:31:29;22.30;99.90
18948;DHT22;9607;51.600;7.558;2023-06-22T06:33:57;22.30;99.90
18948;DHT22;9607;51.600;7.558;2023-06-22T06:36:24;22.40;99.90
18948;DHT22;9607;51.600;7.558;2023-06-22T06:38:50;22.50;99.90
18948;DHT22;9607;51.600;7.558;2023-06-22T06:41:17;22.50;99.90
18948;DHT22;9607;51.600;7.558;2023-06-22T06:43:44;22.60;99.90
18948;DHT22;9607;51.600;7.558;2023-06-22T06:46:11;22.60;99.90
18948;DHT22;9607;51.600;7.558;2023-06-22T06:48:38;22.70;99.90
18948;DHT22;9607;51.600;7.558;2023-06-22T06:51:06;22.80;99.90
18948;DHT22;9607;51.600;7.558;2023-06-22T06:53:35;22.80;99.90
18948;DHT22;9607;51.600;7.558;2023-06-22T06:56:02;22.80;99.90
18948;DHT22;9607;51.600;7.558;2023-06-22T06:58:28;22.80;99.90
18948;DHT22;9607;51.600;7.558;2023-06-22T07:00:55;22.90;99.90
18948;DHT22;9607;51.600;7.558;2023-06-22T07:03:22;22.90;99.90
18948;DHT22;9607;51.600;7.558;2023-06-22T07:05:49;22.90;99.90
18948;DHT22;9607;51.600;7.558;2023-06-22T07:08:17;23.00;99.90
18948;DHT22;9607;51.600;7.558;2023-06-22T07:10:44;23.10;99.90
18948;DHT22;9607;51.600;7.558;2023-06-22T07:13:10;23.20;99.90
18948;DHT22;9607;51.600;7.558;2023-06-22T07:15:37;23.40;99.90
18948;DHT22;9607;51.600;7.558;2023-06-22T07:18:04;23.40;99.90
18948;DHT22;9607;51.600;7.558;2023-06-22T07:20:31;23.40;99.90
18948;DHT22;9607;51.600;7.558;2023-06-22T07:22:57;23.30;99.90
18948;DHT22;9607;51.600;7.558;2023-06-22T07:25:26;23.30;99.90
18948;DHT22;9607;51.600;7.558;2023-06-22T07:28:00;23.30;99.90
18948;DHT22;9607;51.600;7.558;2023-06-22T07:30:28;23.30;99.90
18948;DHT22;9607;51.600;7.558;2023-06-22T07:32:55;23.40;99.90
18948;DHT22;9607;51.600;7.558;2023-06-22T07:35:22;23.40;99.90
18948;DHT22;9607;51.600;7.558;2023-06-22T07:37:48;23.40;99.90
18948;DHT22;9607;51.600;7.558;2023-06-22T07:40:15;23.50;99.90
18948;DHT22;9607;51.600;7.558;2023-06-22T07:42:44;23.60;99.90
18948;DHT22;9607;51.600;7.558;2023-06-22T07:45:13;23.60;99.90
18948;DHT22;9607;51.600;7.558;2023-06-22T07:47:40;23.60;99.90
18948;DHT22;9607;51.600;7.558;2023-06-22T07:50:07;23.60;99.90
18948;DHT22;9607;51.600;7.558;2023-06-22T07:52:34;23.70;99.90
18948;DHT22;9607;51.600;7.558;2023-06-22T07:55:01;23.70;99.90
18948;DHT22;9607;51.600;7.558;2023-06-22T07:57:28;23.70;99.90
18948;DHT22;9607;51.600;7.558;2023-06-22T08:00:00;23.80;99.90
18948;DHT22;9607;51.600;7.558;2023-06-22T08:02:29;23.80;99.90
18948;DHT22;9607;51.600;7.558;2023-06-22T08:04:56;23.90;99.90
18948;DHT22;9607;51.600;7.558;2023-06-22T08:07:23;23.90;99.90
18948;DHT22;9607;51.600;7.558;2023-06-22T08:09:50;24.10;99.90
18948;DHT22;9607;51.600;7.558;2023-06-22T08:12:16;24.20;99.90
18948;DHT22;9607;51.600;7.558;2023-06-22T08:14:43;24.30;99.90
18948;DHT22;9607;51.600;7.558;2023-06-22T08:17:12;24.50;99.90
18948;DHT22;9607;51.600;7.558;2023-06-22T08:19:40;24.60;99.90
18948;DHT22;9607;51.600;7.558;2023-06-22T08:22:06;24.70;99.90
18948;DHT22;9607;51.600;7.558;2023-06-22T08:24:33;24.90;99.90
18948;DHT22;9607;51.600;7.558;2023-06-22T08:27:00;25.00;99.90
18948;DHT22;9607;51.600;7.558;2023-06-22T08:29:27;25.20;99.90
18948;DHT22;9607;51.600;7.558;2023-06-22T08:31:53;25.30;99.90
18948;DHT22;9607;51.600;7.558;2023-06-22T08:34:21;25.50;99.90
18948;DHT22;9607;51.600;7.558;2023-06-22T08:36:48;25.70;99.90
18948;DHT22;9607;51.600;7.558;2023-06-22T08:39:17;25.90;99.90
18948;DHT22;9607;51.600;7.558;2023-06-22T08:41:43;26.10;99.90
18948;DHT22;9607;51.600;7.558;2023-06-22T08:44:10;26.30;99.90
18948;DHT22;9607;51.600;7.558;2023-06-22T08:46:37;26.50;99.90
18948;DHT22;9607;51.600;7.558;2023-06-22T08:49:05;26.80;99.90
18948;DHT22;9607;51.600;7.558;2023-06-22T08:51:34;26.90;99.90
18948;DHT22;9607;51.600;7.558;2023-06-22T08:54:00;27.20;99.90
18948;DHT22;9607;51.600;7.558;2023-06-22T08:56:27;27.20;99.90
18948;DHT22;9607;51.600;7.558;2023-06-22T08:58:54;27.00;99.90
18948;DHT22;9607;51.600;7.558;2023-06-22T09:01:21;26.90;99.90
18948;DHT22;9607;51.600;7.558;2023-06-22T09:03:48;26.90;99.90
18948;DHT22;9607;51.600;7.558;2023-06-22T09:06:19;26.90;99.90
18948;DHT22;9607;51.600;7.558;2023-06-22T09:08:48;26.90;99.90
18948;DHT22;9607;51.600;7.558;2023-06-22T09:11:15;27.10;99.90
18948;DHT22;9607;51.600;7.558;2023-06-22T09:13:42;27.40;99.90
18948;DHT22;9607;51.600;7.558;2023-06-22T09:16:10;27.90;99.90
18948;DHT22;9607;51.600;7.558;2023-06-22T09:18:37;28.30;99.90
18948;DHT22;9607;51.600;7.558;2023-06-22T09:21:03;28.60;99.90
18948;DHT22;9607;51.600;7.558;2023-06-22T09:23:30;28.90;99.90
18948;DHT22;9607;51.600;7.558;2023-06-22T09:25:58;29.20;99.90
18948;DHT22;9607;51.600;7.558;2023-06-22T09:28:25;29.30;98.80
18948;DHT22;9607;51.600;7.558;2023-06-22T09:30:52;29.30;97.20
18948;DHT22;9607;51.600;7.558;2023-06-22T09:33:23;29.40;96.80
18948;DHT22;9607;51.600;7.558;2023-06-22T09:35:55;29.50;96.70
18948;DHT22;9607;51.600;7.558;2023-06-22T09:38:22;29.60;96.30
18948;DHT22;9607;51.600;7.558;2023-06-22T09:40:48;29.70;95.30
18948;DHT22;9607;51.600;7.558;2023-06-22T09:43:17;29.80;94.40
18948;DHT22;9607;51.600;7.558;2023-06-22T09:45:43;29.90;92.90
18948;DHT22;9607;51.600;7.558;2023-06-22T09:48:10;29.80;93.10
18948;DHT22;9607;51.600;7.558;2023-06-22T09:50:38;29.70;93.70
18948;DHT22;9607;51.600;7.558;2023-06-22T09:53:05;29.60;93.00
18948;DHT22;9607;51.600;7.558;2023-06-22T09:55:31;29.70;94.30
18948;DHT22;9607;51.600;7.558;2023-06-22T09:57:58;29.90;95.00
18948;DHT22;9607;51.600;7.558;2023-06-22T10:00:26;30.10;93.80
18948;DHT22;9607;51.600;7.558;2023-06-22T10:02:53;30.20;92.40
18948;DHT22;9607;51.600;7.558;2023-06-22T10:05:21;30.10;92.50
18948;DHT22;9607;51.600;7.558;2023-06-22T10:07:48;30.00;92.60
18948;DHT22;9607;51.600;7.558;2023-06-22T10:10:14;30.00;93.10
18948;DHT22;9607;51.600;7.558;2023-06-22T10:12:42;30.20;93.20
18948;DHT22;9607;51.600;7.558;2023-06-22T10:15:10;30.40;92.90
18948;DHT22;9607;51.600;7.558;2023-06-22T10:17:38;30.70;91.80
18948;DHT22;9607;51.600;7.558;2023-06-22T10:20:06;30.80;90.70
18948;DHT22;9607;51.600;7.558;2023-06-22T10:22:37;31.00;90.20
18948;DHT22;9607;51.600;7.558;2023-06-22T10:25:05;31.10;90.00
18948;DHT22;9607;51.600;7.558;2023-06-22T10:27:32;31.10;86.60
18948;DHT22;9607;51.600;7.558;2023-06-22T10:29:59;31.00;86.20
18948;DHT22;9607;51.600;7.558;2023-06-22T10:32:25;30.80;85.00
18948;DHT22;9607;51.600;7.558;2023-06-22T10:34:55;30.80;85.70
18948;DHT22;9607;51.600;7.558;2023-06-22T10:37:22;30.90;87.50
18948;DHT22;9607;51.600;7.558;2023-06-22T10:39:49;31.00;86.10
18948;DHT22;9607;51.600;7.558;2023-06-22T10:42:16;31.10;83.40
18948;DHT22;9607;51.600;7.558;2023-06-22T10:44:43;31.20;81.40
18948;DHT22;9607;51.600;7.558;2023-06-22T10:47:10;31.10;80.30
18948;DHT22;9607;51.600;7.558;2023-06-22T10:49:37;31.10;80.40
18948;DHT22;9607;51.600;7.558;2023-06-22T10:52:07;31.10;79.50
18948;DHT22;9607;51.600;7.558;2023-06-22T10:54:34;31.20;80.10
18948;DHT22;9607;51.600;7.558;2023-06-22T10:57:02;31.40;80.80
18948;DHT22;9607;51.600;7.558;2023-06-22T10:59:29;31.60;80.00
18948;DHT22;9607;51.600;7.558;2023-06-22T11:01:56;31.70;77.80
18948;DHT22;9607;51.600;7.558;2023-06-22T11:04:23;31.70;77.30
18948;DHT22;9607;51.600;7.558;2023-06-22T11:06:50;31.80;76.70
18948;DHT22;9607;51.600;7.558;2023-06-22T11:09:19;32.10;78.00
18948;DHT22;9607;51.600;7.558;2023-06-22T11:11:47;32.40;77.10
18948;DHT22;9607;51.600;7.558;2023-06-22T11:14:14;32.60;72.40
18948;DHT22;9607;51.600;7.558;2023-06-22T11:16:40;32.50;68.30
18948;DHT22;9607;51.600;7.558;2023-06-22T11:19:07;32.30;67.00
18948;DHT22;9607;51.600;7.558;2023-06-22T11:21:34;32.00;68.10
18948;DHT22;9607;51.600;7.558;2023-06-22T11:24:01;31.80;70.20
18948;DHT22;9607;51.600;7.558;2023-06-22T11:26:29;31.60;70.60
18948;DHT22;9607;51.600;7.558;2023-06-22T11:28:57;31.30;71.30
18948;DHT22;9607;51.600;7.558;2023-06-22T11:31:24;30.80;73.60
18948;DHT22;9607;51.600;7.558;2023-06-22T11:33:51;30.40;74.70
18948;DHT22;9607;51.600;7.558;2023-06-22T11:36:18;30.00;76.30
18948;DHT22;9607;51.600;7.558;2023-06-22T11:38:45;29.70;78.30
18948;DHT22;9607;51.600;7.558;2023-06-22T11:41:12;29.40;81.10
18948;DHT22;9607;51.600;7.558;2023-06-22T11:43:40;29.20;86.50
18948;DHT22;9607;51.600;7.558;2023-06-22T11:46:07;28.80;91.50
18948;DHT22;9607;51.600;7.558;2023-06-22T11:48:34;28.60;94.10
18948;DHT22;9607;51.600;7.558;2023-06-22T11:51:02;28.20;95.90
18948;DHT22;9607;51.600;7.558;2023-06-22T11:53:29;27.80;98.90
18948;DHT22;9607;51.600;7.558;2023-06-22T11:55:56;27.40;99.90
18948;DHT22;9607;51.600;7.558;2023-06-22T11:58:24;27.00;99.90
18948;DHT22;9607;51.600;7.558;2023-06-22T12:00:52;26.70;99.90
18948;DHT22;9607;51.600;7.558;2023-06-22T12:03:19;26.40;99.90
18948;DHT22;9607;51.600;7.558;2023-06-22T12:05:46;26.20;99.90
18948;DHT22;9607;51.600;7.558;2023-06-22T12:08:13;26.00;99.90
18948;DHT22;9607;51.600;7.558;2023-06-22T12:10:40;25.70;99.90
18948;DHT22;9607;51.600;7.558;2023-06-22T12:13:07;25.60;99.90
18948;DHT22;9607;51.600;7.558;2023-06-22T12:15:34;25.40;99.90
18948;DHT22;9607;51.600;7.558;2023-06-22T12:18:02;25.30;99.90
18948;DHT22;9607;51.600;7.558;2023-06-22T12:20:29;25.20;99.90
18948;DHT22;9607;51.600;7.558;2023-06-22T12:22:57;25.10;99.90
18948;DHT22;9607;51.600;7.558;2023-06-22T12:25:24;24.90;99.90
18948;DHT22;9607;51.600;7.558;2023-06-22T12:27:50;24.70;99.90
18948;DHT22;9607;51.600;7.558;2023-06-22T12:30:17;24.60;99.90
18948;DHT22;9607;51.600;7.558;2023-06-22T12:32:44;24.30;99.90
18948;DHT22;9607;51.600;7.558;2023-06-22T12:35:12;24.10;99.90
18948;DHT22;9607;51.600;7.558;2023-06-22T12:37:40;23.90;99.90
18948;DHT22;9607;51.600;7.558;2023-06-22T12:40:08;23.60;99.90
18948;DHT22;9607;51.600;7.558;2023-06-22T12:42:35;23.50;99.90
18948;DHT22;9607;51.600;7.558;2023-06-22T12:45:02;23.30;99.90
18948;DHT22;9607;51.600;7.558;2023-06-22T12:47:29;23.20;99.90
18948;DHT22;9607;51.600;7.558;2023-06-22T12:49:56;23.10;99.90
18948;DHT22;9607;51.600;7.558;2023-06-22T12:52:24;23.00;99.90
18948;DHT22;9607;51.600;7.558;2023-06-22T12:54:50;22.90;99.90
18948;DHT22;9607;51.600;7.558;2023-06-22T12:57:18;22.80;99.90
18948;DHT22;9607;51.600;7.558;2023-06-22T12:59:45;22.70;99.90
18948;DHT22;9607;51.600;7.558;2023-06-22T13:02:12;22.70;99.90
18948;DHT22;9607;51.600;7.558;2023-06-22T13:04:39;22.70;99.90
18948;DHT22;9607;51.600;7.558;2023-06-22T13:07:06;22.60;99.90
18948;DHT22;9607;51.600;7.558;2023-06-22T13:09:36;22.60;99.90
18948;DHT22;9607;51.600;7.558;2023-06-22T13:12:03;22.60;99.90
18948;DHT22;9607;51.600;7.558;2023-06-22T13:14:30;22.70;99.90
18948;DHT22;9607;51.600;7.558;2023-06-22T13:16:57;22.70;99.90
18948;DHT22;9607;51.600;7.558;2023-06-22T13:19:24;22.80;99.90
18948;DHT22;9607;51.600;7.558;2023-06-22T13:21:53;23.00;99.90
18948;DHT22;9607;51.600;7.558;2023-06-22T13:24:20;23.40;99.90
18948;DHT22;9607;51.600;7.558;2023-06-22T13:26:48;23.60;99.90
18948;DHT22;9607;51.600;7.558;2023-06-22T13:29:15;24.10;99.90
18948;DHT22;9607;51.600;7.558;2023-06-22T13:31:41;24.90;99.90
18948;DHT22;9607;51.600;7.558;2023-06-22T13:34:08;25.90;99.90
18948;DHT22;9607;51.600;7.558;2023-06-22T13:36:35;26.80;99.90
18948;DHT22;9607;51.600;7.558;2023-06-22T13:39:02;27.70;99.90
18948;DHT22;9607;51.600;7.558;2023-06-22T13:41:29;28.40;99.90
18948;DHT22;9607;51.600;7.558;2023-06-22T13:43:57;28.90;99.90
18948;DHT22;9607;51.600;7.558;2023-06-22T13:46:24;29.20;99.90
18948;DHT22;9607;51.600;7.558;2023-06-22T13:48:51;29.20;99.90
18948;DHT22;9607;51.600;7.558;2023-06-22T13:51:18;29.20;99.90
18948;DHT22;9607;51.600;7.558;2023-06-22T13:53:44;29.40;99.90
18948;DHT22;9607;51.600;7.558;2023-06-22T13:56:11;29.70;99.90
18948;DHT22;9607;51.600;7.558;2023-06-22T13:58:38;30.10;99.90
18948;DHT22;9607;51.600;7.558;2023-06-22T14:01:06;30.50;99.90
18948;DHT22;9607;51.600;7.558;2023-06-22T14:03:33;30.70;99.90
18948;DHT22;9607;51.600;7.558;2023-06-22T14:05:59;30.70;99.90
18948;DHT22;9607;51.600;7.558;2023-06-22T14:08:26;30.60;99.90
18948;DHT22;9607;51.600;7.558;2023-06-22T14:10:53;30.50;99.90
18948;DHT22;9607;51.600;7.558;2023-06-22T14:13:20;30.10;99.90
18948;DHT22;9607;51.600;7.558;2023-06-22T14:15:47;29.50;99.90
18948;DHT22;9607;51.600;7.558;2023-06-22T14:18:16;29.10;99.90
18948;DHT22;9607;51.600;7.558;2023-06-22T14:20:42;28.60;99.90
18948;DHT22;9607;51.600;7.558;2023-06-22T14:23:09;28.20;99.90
18948;DHT22;9607;51.600;7.558;2023-06-22T14:25:36;27.90;99.90
18948;DHT22;9607;51.600;7.558;2023-06-22T14:28:03;27.60;99.90
18948;DHT22;9607;51.600;7.558;2023-06-22T14:30:30;27.20;99.90
18948;DHT22;9607;51.600;7.558;2023-06-22T14:32:56;27.00;99.90
18948;DHT22;9607;51.600;7.558;2023-06-22T14:35:25;26.80;99.90
18948;DHT22;9607;51.600;7.558;2023-06-22T14:37:52;26.70;99.90
18948;DHT22;9607;51.600;7.558;2023-06-22T14:40:18;26.80;99.90
18948;DHT22;9607;51.600;7.558;2023-06-22T14:42:46;26.90;99.90
18948;DHT22;9607;51.600;7.558;2023-06-22T14:45:13;26.80;99.90
18948;DHT22;9607;51.600;7.558;2023-06-22T14:47:40;26.90;99.90
18948;DHT22;9607;51.600;7.558;2023-06-22T14:50:07;26.90;99.90
18948;DHT22;9607;51.600;7.558;2023-06-22T14:52:36;26.80;99.90
18948;DHT22;9607;51.600;7.558;2023-06-22T14:55:03;26.70;99.90
18948;DHT22;9607;51.600;7.558;2023-06-22T14:57:30;26.60;99.90
18948;DHT22;9607;51.600;7.558;2023-06-22T14:59:57;26.50;99.90
18948;DHT22;9607;51.600;7.558;2023-06-22T15:02:24;26.30;99.90
18948;DHT22;9607;51.600;7.558;2023-06-22T15:04:51;26.20;99.90
18948;DHT22;9607;51.600;7.558;2023-06-22T15:07:18;26.10;99.90
18948;DHT22;9607;51.600;7.558;2023-06-22T15:09:48;26.10;99.90
18948;DHT22;9607;51.600;7.558;2023-06-22T15:12:15;26.00;99.90
18948;DHT22;9607;51.600;7.558;2023-06-22T15:14:42;25.80;99.90
18948;DHT22;9607;51.600;7.558;2023-06-22T15:17:09;25.70;99.90
18948;DHT22;9607;51.600;7.558;2023-06-22T15:19:36;25.70;99.90
18948;DHT22;9607;51.600;7.558;2023-06-22T15:22:04;26.10;99.90
18948;DHT22;9607;51.600;7.558;2023-06-22T15:24:31;27.00;99.90
18948;DHT22;9607;51.600;7.558;2023-06-22T15:27:00;27.50;99.90
18948;DHT22;9607;51.600;7.558;2023-06-22T15:29:27;27.70;99.90
18948;DHT22;9607;51.600;7.558;2023-06-22T15:31:59;27.70;99.90
18948;DHT22;9607;51.600;7.558;2023-06-22T15:34:26;27.70;99.90
18948;DHT22;9607;51.600;7.558;2023-06-22T15:36:53;27.40;99.90
18948;DHT22;9607;51.600;7.558;2023-06-22T15:39:20;27.10;99.90
18948;DHT22;9607;51.600;7.558;2023-06-22T15:41:48;26.70;99.90
18948;DHT22;9607;51.600;7.558;2023-06-22T15:44:16;26.40;99.90
18948;DHT22;9607;51.600;7.558;2023-06-22T15:46:43;26.10;99.90